Terminal Aerodrome Forecast
Issued by NWS

Home | Current Version | Previous Version | Text Only | Print | Product List | Glossary On
Versions: 1 2 3 4 5 6 7 8 9 10 11 12 13 14 15 16 17 18 19 20
000
FTUS44 KLZK 311100
TAFHRO
TAF
KHRO 311140Z 3112/0112 00000KT 2SM BR SCT002 OVC040
      TEMPO 3112/3114 1/4SM FG OVC002
     FM311400 12005KT 3SM BR OVC015
      TEMPO 3114/3117 1SM -RA BR OVC005
     FM311700 15005KT P6SM -RA SCT020 OVC040
      TEMPO 3117/3121 4SM -RA BR OVC025
     FM010000 14003KT P6SM OVC040
      TEMPO 0108/0112 2SM BR OVC025=

USA.gov is the U.S. government's official web portal to all federal, state and local government web resources and services.